Time;durP1;ratioP1;P1;durP2;ratioP2;P2;SDS_P1;SDS_P2;PMS_P1;PMS_P2;Temp;Humidity;BMP_temperature;BMP_pressure;BME280_temperature;BME280_humidity;BME280_pressure;Samples;Min_cycle;Max_cycle;Signal;HPM_P1;HPM_P2
2022/01/24 00:01:05;;;;;;;17.40;8.13;;;;;;;;;;6240450;28;20455;-74
2022/01/24 00:04:10;;;;;;;18.20;8.85;;;;;;;;;;6239417;28;20045;-74
2022/01/24 00:07:17;;;;;;;20.50;8.40;;;;;;;;;;6239824;28;20132;-74
2022/01/24 00:10:25;;;;;;;21.95;8.52;;;;;;;;;;6221655;28;20045;-75
2022/01/24 00:17:02;;;;;;;20.05;9.45;;;;;;;;;;6240267;28;20048;-73
2022/01/24 00:27:19;;;;;;;21.52;8.07;;;;;;;;;;6089613;28;20074;-74
2022/01/24 00:30:22;;;;;;;17.42;7.93;;;;;;;;;;6147797;28;20534;-74
2022/01/24 00:33:26;;;;;;;18.33;8.98;;;;;;;;;;6236360;28;20084;-73
2022/01/24 00:36:31;;;;;;;20.25;9.13;;;;;;;;;;6239144;28;20053;-74
2022/01/24 00:39:34;;;;;;;21.67;8.20;;;;;;;;;;6239656;28;20129;-74
2022/01/24 00:42:48;;;;;;;21.50;9.23;;;;;;;;;;6238537;28;20109;-73
2022/01/24 00:46:00;;;;;;;21.98;8.93;;;;;;;;;;6240080;28;20069;-73
2022/01/24 00:49:22;;;;;;;17.95;8.13;;;;;;;;;;6238513;28;20049;-74
2022/01/24 00:55:49;;;;;;;26.73;9.45;;;;;;;;;;6238548;28;20057;-74
2022/01/24 00:58:53;;;;;;;20.20;8.75;;;;;;;;;;6239616;28;20081;-74
2022/01/24 01:01:57;;;;;;;20.75;8.52;;;;;;;;;;6239591;28;20130;-74
2022/01/24 01:05:12;;;;;;;19.35;8.57;;;;;;;;;;6239318;28;20118;-74
2022/01/24 01:18:18;;;;;;;17.55;8.27;;;;;;;;;;6270523;28;20103;-74
2022/01/24 01:21:21;;;;;;;21.10;9.15;;;;;;;;;;6237629;28;20053;-74
2022/01/24 01:24:27;;;;;;;24.33;8.93;;;;;;;;;;6237611;28;20072;-74
2022/01/24 01:27:37;;;;;;;19.63;8.18;;;;;;;;;;6234731;28;20426;-75
2022/01/24 01:30:44;;;;;;;19.00;8.88;;;;;;;;;;6235927;28;20475;-74
2022/01/24 01:33:57;;;;;;;18.10;9.07;;;;;;;;;;6236433;28;20375;-74
2022/01/24 01:37:25;;;;;;;18.10;8.55;;;;;;;;;;6235654;28;20080;-74
2022/01/24 01:54:24;;;;;;;25.55;8.48;;;;;;;;;;6238726;28;20402;-75
2022/01/24 01:57:27;;;;;;;21.73;8.88;;;;;;;;;;6238700;28;20049;-74
2022/01/24 02:00:32;;;;;;;19.90;9.02;;;;;;;;;;6238373;28;20049;-74
2022/01/24 02:03:35;;;;;;;17.40;7.75;;;;;;;;;;6238787;28;20073;-74
2022/01/24 02:06:38;;;;;;;21.83;8.55;;;;;;;;;;6237156;28;20508;-75
2022/01/24 02:09:44;;;;;;;21.75;8.65;;;;;;;;;;6236888;28;20103;-74
2022/01/24 02:12:48;;;;;;;23.45;9.10;;;;;;;;;;6238664;28;20045;-74
2022/01/24 02:16:01;;;;;;;19.65;8.90;;;;;;;;;;6238314;28;20073;-74
2022/01/24 02:19:12;;;;;;;19.77;8.60;;;;;;;;;;6237404;28;20050;-74
2022/01/24 02:22:41;;;;;;;17.52;8.13;;;;;;;;;;6236700;28;20114;-73
2022/01/24 02:25:44;;;;;;;21.17;8.65;;;;;;;;;;6237041;28;20049;-74
2022/01/24 02:29:13;;;;;;;19.88;8.45;;;;;;;;;;6237478;28;20133;-74
2022/01/24 02:32:18;;;;;;;18.98;8.52;;;;;;;;;;6235814;28;20053;-74
2022/01/24 02:35:22;;;;;;;20.45;8.80;;;;;;;;;;6236345;28;20076;-74
2022/01/24 02:38:38;;;;;;;16.50;8.32;;;;;;;;;;6236359;28;20514;-74
2022/01/24 02:48:27;;;;;;;17.05;8.98;;;;;;;;;;6233621;28;20556;-74
2022/01/24 02:51:45;;;;;;;19.20;8.55;;;;;;;;;;6238380;28;20444;-75
2022/01/24 02:54:51;;;;;;;20.90;8.90;;;;;;;;;;6239384;28;20474;-75
2022/01/24 02:57:56;;;;;;;18.27;8.50;;;;;;;;;;6239364;28;20508;-75
2022/01/24 03:01:06;;;;;;;21.65;7.97;;;;;;;;;;6237989;28;20120;-75
2022/01/24 03:04:09;;;;;;;21.27;8.82;;;;;;;;;;6241999;28;20051;-75
2022/01/24 03:07:14;;;;;;;21.13;8.73;;;;;;;;;;6241728;28;20065;-75
2022/01/24 03:10:27;;;;;;;16.88;7.32;;;;;;;;;;6241288;28;20053;-74
2022/01/24 03:13:36;;;;;;;20.95;8.30;;;;;;;;;;6241735;28;20072;-74
2022/01/24 03:16:38;;;;;;;21.27;8.75;;;;;;;;;;6241612;28;20052;-74
2022/01/24 03:19:44;;;;;;;17.27;8.27;;;;;;;;;;6240754;28;20113;-74
2022/01/24 03:22:47;;;;;;;21.48;8.20;;;;;;;;;;6241226;28;20052;-74
2022/01/24 03:25:52;;;;;;;19.27;8.13;;;;;;;;;;6240284;28;20056;-74
2022/01/24 03:28:57;;;;;;;16.98;8.00;;;;;;;;;;6241145;28;20069;-74
2022/01/24 03:32:00;;;;;;;18.77;8.07;;;;;;;;;;6239695;28;20057;-74
2022/01/24 03:35:07;;;;;;;20.30;8.57;;;;;;;;;;6240015;28;20444;-75
2022/01/24 03:38:11;;;;;;;21.30;8.43;;;;;;;;;;6239795;28;20541;-74
2022/01/24 03:41:17;;;;;;;26.13;8.75;;;;;;;;;;6241283;28;20503;-75
2022/01/24 03:44:23;;;;;;;24.15;9.32;;;;;;;;;;6240790;28;20065;-75
2022/01/24 03:47:42;;;;;;;19.70;8.47;;;;;;;;;;6239935;28;20046;-75
2022/01/24 03:50:46;;;;;;;21.02;8.70;;;;;;;;;;6239990;28;20073;-74
2022/01/24 03:53:49;;;;;;;18.75;7.70;;;;;;;;;;6240650;28;20045;-74
2022/01/24 03:56:54;;;;;;;18.50;8.00;;;;;;;;;;6239408;28;20069;-74
2022/01/24 03:59:57;;;;;;;16.80;7.85;;;;;;;;;;6240764;28;20085;-74
2022/01/24 04:03:03;;;;;;;19.67;7.95;;;;;;;;;;6239572;28;20072;-74
2022/01/24 04:06:09;;;;;;;20.73;8.40;;;;;;;;;;6240414;28;20178;-74
2022/01/24 04:09:15;;;;;;;16.98;7.97;;;;;;;;;;6240847;28;20095;-74
2022/01/24 04:12:23;;;;;;;16.38;7.07;;;;;;;;;;6239208;28;20376;-73
2022/01/24 04:15:46;;;;;;;18.95;8.65;;;;;;;;;;6240556;28;20483;-73
2022/01/24 04:18:55;;;;;;;18.45;8.18;;;;;;;;;;6238948;28;20405;-73
2022/01/24 04:21:57;;;;;;;17.35;8.00;;;;;;;;;;6239413;28;20326;-73
2022/01/24 04:25:05;;;;;;;22.58;7.72;;;;;;;;;;6240320;28;20049;-73
2022/01/24 04:28:11;;;;;;;20.20;7.68;;;;;;;;;;6238591;28;20076;-74
2022/01/24 04:31:17;;;;;;;20.33;8.35;;;;;;;;;;6238917;28;20499;-74
2022/01/24 04:34:20;;;;;;;18.60;7.55;;;;;;;;;;6240366;28;20100;-74
2022/01/24 04:37:23;;;;;;;18.15;7.90;;;;;;;;;;6238691;28;20466;-74
2022/01/24 04:40:26;;;;;;;21.02;8.00;;;;;;;;;;6239523;28;20080;-74
2022/01/24 04:43:51;;;;;;;19.48;7.78;;;;;;;;;;6240135;28;20098;-74
2022/01/24 04:47:02;;;;;;;17.23;7.55;;;;;;;;;;6238590;28;20053;-74
2022/01/24 04:50:38;;;;;;;18.35;8.07;;;;;;;;;;6238453;28;20388;-74
2022/01/24 04:57:00;;;;;;;21.13;8.40;;;;;;;;;;6244862;28;20052;-74
2022/01/24 05:00:07;;;;;;;21.75;8.20;;;;;;;;;;6239623;28;20076;-74
2022/01/24 05:03:12;;;;;;;20.80;9.10;;;;;;;;;;6239913;28;20055;-74
2022/01/24 05:06:16;;;;;;;22.98;9.75;;;;;;;;;;6239491;28;20050;-74
2022/01/24 05:09:20;;;;;;;20.80;9.63;;;;;;;;;;6239404;28;20492;-74
2022/01/24 05:12:31;;;;;;;24.50;8.60;;;;;;;;;;6237677;28;20077;-74
2022/01/24 05:25:40;;;;;;;19.33;7.55;;;;;;;;;;6239417;28;20116;-73
2022/01/24 05:28:45;;;;;;;19.60;8.60;;;;;;;;;;6237419;28;20057;-73
2022/01/24 05:31:50;;;;;;;20.02;8.35;;;;;;;;;;6237832;28;20088;-74
2022/01/24 05:34:55;;;;;;;18.42;8.30;;;;;;;;;;6238182;28;20052;-75
2022/01/24 05:37:58;;;;;;;19.40;8.43;;;;;;;;;;6238916;28;20049;-75
2022/01/24 05:41:01;;;;;;;18.83;7.57;;;;;;;;;;6237524;28;20049;-75
2022/01/24 05:44:06;;;;;;;25.00;8.82;;;;;;;;;;6239202;28;20073;-76
2022/01/24 05:47:11;;;;;;;19.15;7.75;;;;;;;;;;6237525;28;20064;-75
2022/01/24 05:50:14;;;;;;;20.67;9.05;;;;;;;;;;6238231;28;20080;-76
2022/01/24 05:53:19;;;;;;;19.77;7.70;;;;;;;;;;6237624;28;20056;-76
2022/01/24 05:56:25;;;;;;;24.75;8.07;;;;;;;;;;6238667;28;20458;-76
2022/01/24 05:59:28;;;;;;;20.02;8.63;;;;;;;;;;6237208;28;20049;-75
2022/01/24 06:02:33;;;;;;;23.17;8.80;;;;;;;;;;6237000;28;20523;-75
2022/01/24 06:05:36;;;;;;;18.52;8.40;;;;;;;;;;6237479;28;20041;-75
2022/01/24 06:08:39;;;;;;;21.95;8.70;;;;;;;;;;6235513;28;20080;-75
2022/01/24 06:11:43;;;;;;;19.10;8.27;;;;;;;;;;6236699;28;20044;-75
2022/01/24 06:14:46;;;;;;;23.75;8.38;;;;;;;;;;6236576;28;20050;-75
2022/01/24 06:17:51;;;;;;;28.65;9.20;;;;;;;;;;6234380;28;20483;-74
2022/01/24 06:20:54;;;;;;;25.73;9.20;;;;;;;;;;6232855;28;20069;-74
2022/01/24 06:23:58;;;;;;;22.15;8.57;;;;;;;;;;6236207;28;20038;-76
2022/01/24 06:27:01;;;;;;;22.52;9.32;;;;;;;;;;6237211;28;20073;-75
2022/01/24 06:30:05;;;;;;;26.50;10.35;;;;;;;;;;6238311;28;20057;-76
2022/01/24 06:33:10;;;;;;;26.83;9.95;;;;;;;;;;6238496;28;20132;-76
2022/01/24 06:36:15;;;;;;;26.73;10.88;;;;;;;;;;6239182;28;20048;-75
2022/01/24 06:39:18;;;;;;;24.58;10.68;;;;;;;;;;6242703;28;20061;-76
2022/01/24 06:42:23;;;;;;;29.58;11.23;;;;;;;;;;6240836;28;20047;-76
2022/01/24 06:45:26;;;;;;;25.33;10.15;;;;;;;;;;6241156;28;20510;-76
2022/01/24 06:48:33;;;;;;;30.13;11.93;;;;;;;;;;6242105;28;20114;-76
2022/01/24 06:51:36;;;;;;;22.17;9.75;;;;;;;;;;6240764;28;20142;-76
2022/01/24 06:54:42;;;;;;;22.87;9.70;;;;;;;;;;6240341;28;20050;-77
2022/01/24 06:57:46;;;;;;;25.70;9.52;;;;;;;;;;6240840;28;20322;-77
2022/01/24 07:00:51;;;;;;;22.77;9.03;;;;;;;;;;6240620;28;20049;-76
2022/01/24 07:03:59;;;;;;;19.38;9.48;;;;;;;;;;6239986;28;20485;-77
2022/01/24 07:07:01;;;;;;;20.90;9.55;;;;;;;;;;6239971;28;20402;-76
2022/01/24 07:10:05;;;;;;;21.23;9.32;;;;;;;;;;6240187;28;20080;-76
2022/01/24 07:13:28;;;;;;;38.78;13.98;;;;;;;;;;6240235;28;20052;-76
2022/01/24 07:16:48;;;;;;;24.40;10.02;;;;;;;;;;6239800;28;20071;-76
2022/01/24 07:19:52;;;;;;;24.60;10.05;;;;;;;;;;6242130;28;20041;-76
2022/01/24 07:22:55;;;;;;;22.45;9.18;;;;;;;;;;6241910;28;20510;-76
2022/01/24 07:25:58;;;;;;;24.58;9.32;;;;;;;;;;6239826;28;20533;-77
2022/01/24 07:29:02;;;;;;;25.38;9.63;;;;;;;;;;6239497;28;20500;-77
2022/01/24 07:32:05;;;;;;;23.33;9.68;;;;;;;;;;6239712;28;20384;-76
2022/01/24 07:35:10;;;;;;;24.75;10.18;;;;;;;;;;6237789;28;20477;-76
2022/01/24 07:38:13;;;;;;;24.83;10.32;;;;;;;;;;6240389;28;20061;-76
2022/01/24 07:41:23;;;;;;;22.52;10.10;;;;;;;;;;6241249;28;20467;-76
2022/01/24 07:44:28;;;;;;;25.40;9.88;;;;;;;;;;6238995;28;20407;-76
2022/01/24 07:47:31;;;;;;;21.63;10.35;;;;;;;;;;6239541;28;20503;-76
2022/01/24 07:50:37;;;;;;;22.40;10.35;;;;;;;;;;6239629;28;20525;-76
2022/01/24 07:53:45;;;;;;;27.98;10.35;;;;;;;;;;6239692;28;20556;-76
2022/01/24 07:56:53;;;;;;;21.95;9.50;;;;;;;;;;6239567;28;20053;-75
2022/01/24 07:59:56;;;;;;;22.77;10.90;;;;;;;;;;6239542;28;20090;-76
2022/01/24 08:02:59;;;;;;;26.98;10.70;;;;;;;;;;6239707;28;20068;-76
2022/01/24 08:06:04;;;;;;;25.77;10.43;;;;;;;;;;6240480;28;20495;-76
2022/01/24 08:09:09;;;;;;;24.10;10.50;;;;;;;;;;6238834;28;20052;-76
2022/01/24 08:12:15;;;;;;;24.52;9.75;;;;;;;;;;6240345;28;20073;-76
2022/01/24 08:15:18;;;;;;;25.95;11.48;;;;;;;;;;6239030;28;20093;-76
2022/01/24 08:18:23;;;;;;;30.10;11.57;;;;;;;;;;6240530;28;20073;-76
2022/01/24 08:21:28;;;;;;;46.38;18.88;;;;;;;;;;6239885;28;20415;-77
2022/01/24 08:24:34;;;;;;;27.08;11.25;;;;;;;;;;6240842;28;20080;-76
2022/01/24 08:27:37;;;;;;;20.58;9.90;;;;;;;;;;6238808;28;20077;-76
2022/01/24 08:30:40;;;;;;;22.23;10.15;;;;;;;;;;6238357;28;20077;-76
2022/01/24 08:33:43;;;;;;;20.48;9.32;;;;;;;;;;6238942;28;20041;-77
2022/01/24 08:36:51;;;;;;;18.45;9.40;;;;;;;;;;6238835;28;20318;-75
2022/01/24 08:39:54;;;;;;;21.45;9.02;;;;;;;;;;6238774;28;20098;-77
2022/01/24 08:43:23;;;;;;;19.15;8.68;;;;;;;;;;6239026;28;20444;-77
2022/01/24 08:46:26;;;;;;;14.10;6.60;;;;;;;;;;6237859;28;20128;-76
2022/01/24 08:49:30;;;;;;;14.75;6.60;;;;;;;;;;6239632;28;20499;-80
2022/01/24 08:52:34;;;;;;;16.90;6.35;;;;;;;;;;6239238;28;20053;-77
2022/01/24 08:55:48;;;;;;;12.15;5.85;;;;;;;;;;6238251;28;20069;-77
2022/01/24 08:58:51;;;;;;;10.90;5.22;;;;;;;;;;6239900;28;20105;-76
2022/01/24 09:01:57;;;;;;;13.52;4.82;;;;;;;;;;6239920;28;20084;-81
2022/01/24 09:05:05;;;;;;;9.40;4.78;;;;;;;;;;6238405;28;20050;-77
2022/01/24 09:08:12;;;;;;;7.97;4.00;;;;;;;;;;6240969;28;20125;-76
2022/01/24 10:03:27;;;;;;;11.60;4.90;;;;;;;;;;5964959;29;20173;-77
2022/01/24 10:07:13;;;;;;;18.35;5.10;;;;;;;;;;5968445;29;20081;-76
2022/01/24 10:10:21;;;;;;;8.10;4.20;;;;;;;;;;5966244;29;20062;-76
2022/01/24 10:16:48;;;;;;;11.90;4.85;;;;;;;;;;5966532;29;20080;-76
2022/01/24 10:19:52;;;;;;;13.05;5.30;;;;;;;;;;5968409;29;20055;-76
2022/01/24 10:23:06;;;;;;;10.45;5.07;;;;;;;;;;5967082;29;20047;-76
2022/01/24 10:26:10;;;;;;;12.27;5.53;;;;;;;;;;5967350;29;20424;-76
2022/01/24 10:29:13;;;;;;;13.18;5.10;;;;;;;;;;5966753;29;20057;-75
2022/01/24 10:32:31;;;;;;;10.73;5.15;;;;;;;;;;5967870;29;20490;-76
2022/01/24 10:35:43;;;;;;;13.40;5.05;;;;;;;;;;5966801;29;20409;-75
2022/01/24 10:38:55;;;;;;;12.73;5.18;;;;;;;;;;5967023;29;20166;-77
2022/01/24 10:42:26;;;;;;;14.80;6.18;;;;;;;;;;5967839;29;20138;-78
2022/01/24 10:45:31;;;;;;;13.57;5.80;;;;;;;;;;5953512;29;20078;-77
2022/01/24 10:48:39;;;;;;;12.43;5.57;;;;;;;;;;5966384;29;20125;-76
2022/01/24 10:51:45;;;;;;;16.50;5.90;;;;;;;;;;5965415;29;20123;-77
2022/01/24 10:54:48;;;;;;;13.23;5.57;;;;;;;;;;5967679;29;20046;-75
2022/01/24 10:57:53;;;;;;;14.07;6.03;;;;;;;;;;5967381;29;20330;-75
2022/01/24 11:00:57;;;;;;;;;;;;;;;;;;5978230;29;20513;-74
2022/01/24 11:04:05;;;;;;;11.63;5.10;;;;;;;;;;6012086;29;19992;-75
2022/01/24 11:07:13;;;;;;;12.85;6.05;;;;;;;;;;6011291;29;20061;-76
2022/01/24 11:10:16;;;;;;;14.55;5.53;;;;;;;;;;6010113;29;20133;-75
2022/01/24 11:13:24;;;;;;;14.07;5.65;;;;;;;;;;6011264;29;20042;-75
2022/01/24 11:16:27;;;;;;;17.08;6.25;;;;;;;;;;6012381;29;20489;-75
2022/01/24 11:19:36;;;;;;;12.85;5.63;;;;;;;;;;6012189;29;20204;-75
2022/01/24 11:22:42;;;;;;;14.50;6.05;;;;;;;;;;6011822;29;20460;-77
2022/01/24 11:25:47;;;;;;;9.13;4.90;;;;;;;;;;6012071;29;20416;-77
2022/01/24 11:28:50;;;;;;;11.70;4.93;;;;;;;;;;6010895;29;20087;-78
2022/01/24 11:31:59;;;;;;;13.38;5.88;;;;;;;;;;6011624;29;20421;-78
2022/01/24 11:35:02;;;;;;;11.57;5.32;;;;;;;;;;6011039;29;20070;-77
2022/01/24 11:38:25;;;;;;;13.90;5.68;;;;;;;;;;6011837;29;20049;-76
2022/01/24 11:41:33;;;;;;;11.95;5.53;;;;;;;;;;6011606;29;20078;-76
2022/01/24 11:44:55;;;;;;;10.38;4.45;;;;;;;;;;6011194;29;20061;-76
2022/01/24 11:48:13;;;;;;;11.88;5.53;;;;;;;;;;6010819;29;20073;-76
2022/01/24 11:51:18;;;;;;;13.60;5.40;;;;;;;;;;6011560;29;20049;-76
2022/01/24 11:54:43;;;;;;;11.60;5.63;;;;;;;;;;6011360;29;20519;-78
2022/01/24 11:57:49;;;;;;;11.23;5.53;;;;;;;;;;6011045;29;20049;-77
2022/01/24 12:00:57;;;;;;;12.18;5.75;;;;;;;;;;6009036;29;20478;-78
2022/01/24 12:04:00;;;;;;;;;;;;;;;;;;6011685;29;20519;-76
2022/01/24 12:07:17;;;;;;;13.57;5.95;;;;;;;;;;6009989;29;19967;-76
2022/01/24 12:10:43;;;;;;;11.95;5.40;;;;;;;;;;6009082;29;20075;-76
2022/01/24 12:13:48;;;;;;;15.75;6.03;;;;;;;;;;6010519;29;20109;-77
2022/01/24 12:16:52;;;;;;;11.95;6.28;;;;;;;;;;6010889;29;20053;-75
2022/01/24 12:19:59;;;;;;;14.75;5.53;;;;;;;;;;6009783;29;20061;-76
2022/01/24 12:23:30;;;;;;;10.23;5.20;;;;;;;;;;6008249;29;20054;-76
2022/01/24 12:26:47;;;;;;;11.65;5.65;;;;;;;;;;6010199;29;20077;-77
2022/01/24 12:29:53;;;;;;;13.38;5.50;;;;;;;;;;6010747;29;20097;-78
2022/01/24 12:33:03;;;;;;;12.57;5.95;;;;;;;;;;6009364;29;20080;-77
2022/01/24 12:36:09;;;;;;;11.25;5.28;;;;;;;;;;6008398;29;20046;-77
2022/01/24 12:39:13;;;;;;;9.00;4.90;;;;;;;;;;6009190;29;20172;-77
2022/01/24 12:42:29;;;;;;;12.80;5.85;;;;;;;;;;6009013;29;20493;-77
2022/01/24 12:48:54;;;;;;;13.52;5.55;;;;;;;;;;6008304;29;20099;-78
2022/01/24 12:52:02;;;;;;;12.52;5.85;;;;;;;;;;6010289;29;20085;-76
2022/01/24 12:55:06;;;;;;;9.40;5.88;;;;;;;;;;6008948;29;20050;-77
2022/01/24 12:58:10;;;;;;;13.55;5.30;;;;;;;;;;6009396;29;20077;-79
2022/01/24 13:01:18;;;;;;;11.57;5.35;;;;;;;;;;6008231;29;20066;-78
2022/01/24 13:04:31;;;;;;;11.88;6.43;;;;;;;;;;6006576;29;20569;-78
2022/01/24 13:07:35;;;;;;;9.73;5.32;;;;;;;;;;6006910;29;20496;-78
2022/01/24 13:10:38;;;;;;;13.02;5.30;;;;;;;;;;6007632;29;20053;-74
2022/01/24 13:13:58;;;;;;;12.17;6.03;;;;;;;;;;6021995;29;20436;-81
2022/01/24 13:23:53;;;;;;;12.95;6.65;;;;;;;;;;6006224;29;20073;-78
2022/01/24 13:27:04;;;;;;;11.82;5.55;;;;;;;;;;6008001;29;20098;-78
2022/01/24 13:30:09;;;;;;;13.43;5.30;;;;;;;;;;6005842;29;20493;-77
2022/01/24 13:33:15;;;;;;;12.15;5.22;;;;;;;;;;6005418;29;20512;-76
2022/01/24 13:36:21;;;;;;;9.73;5.80;;;;;;;;;;6004623;29;20565;-78
2022/01/24 13:39:26;;;;;;;15.75;5.85;;;;;;;;;;6005477;29;20606;-79
2022/01/24 13:42:34;;;;;;;13.43;6.13;;;;;;;;;;6004718;29;20050;-79
2022/01/24 13:45:39;;;;;;;11.68;4.97;;;;;;;;;;6004465;29;20042;-78
2022/01/24 13:48:46;;;;;;;10.23;5.35;;;;;;;;;;6020278;29;20069;-79
2022/01/24 13:51:51;;;;;;;12.57;5.85;;;;;;;;;;6005385;29;20397;-78
2022/01/24 13:54:54;;;;;;;14.00;5.90;;;;;;;;;;6007384;29;20142;-78
2022/01/24 13:57:57;;;;;;;16.13;6.40;;;;;;;;;;6007554;29;20050;-76
2022/01/24 14:01:01;;;;;;;13.00;6.43;;;;;;;;;;6006885;29;20496;-77
2022/01/24 14:04:11;;;;;;;16.77;7.63;;;;;;;;;;6005926;29;20058;-79
2022/01/24 14:07:16;;;;;;;18.88;6.97;;;;;;;;;;5990966;29;20074;-80
2022/01/24 14:10:24;;;;;;;18.50;7.93;;;;;;;;;;6007231;29;20054;-77
2022/01/24 14:13:29;;;;;;;21.90;7.68;;;;;;;;;;6005752;29;20070;-81
2022/01/24 14:16:44;;;;;;;15.35;6.55;;;;;;;;;;6005532;29;20105;-78
2022/01/24 14:19:56;;;;;;;17.63;7.53;;;;;;;;;;6005894;29;20062;-77
2022/01/24 14:22:59;;;;;;;17.58;7.40;;;;;;;;;;6005360;29;20042;-77
2022/01/24 14:26:05;;;;;;;;;;;;;;;;;;6007342;29;20425;-75
2022/01/24 14:29:09;;;;;;;15.63;6.75;;;;;;;;;;6005265;29;19924;-75
2022/01/24 14:32:15;;;;;;;17.27;7.65;;;;;;;;;;6006836;29;20077;-76
2022/01/24 14:35:21;;;;;;;17.30;6.95;;;;;;;;;;6005050;29;20042;-76
2022/01/24 14:38:32;;;;;;;18.67;7.63;;;;;;;;;;6005521;29;20085;-75
2022/01/24 14:41:44;;;;;;;20.75;7.60;;;;;;;;;;6005138;29;20046;-77
2022/01/24 14:44:57;;;;;;;24.80;8.60;;;;;;;;;;6008471;29;20106;-77
2022/01/24 14:48:05;;;;;;;25.38;8.50;;;;;;;;;;6009729;29;20053;-76
2022/01/24 14:51:10;;;;;;;27.95;9.10;;;;;;;;;;6009499;29;20581;-76
2022/01/24 14:54:14;;;;;;;22.25;8.30;;;;;;;;;;6009364;29;20174;-76
2022/01/24 14:57:18;;;;;;;25.73;8.85;;;;;;;;;;6008839;29;20511;-76
2022/01/24 15:00:21;;;;;;;25.90;9.68;;;;;;;;;;6010498;29;20417;-76
2022/01/24 15:03:24;;;;;;;26.30;9.35;;;;;;;;;;6008862;29;20061;-77
2022/01/24 15:06:29;;;;;;;26.02;9.48;;;;;;;;;;6009018;29;20125;-76
2022/01/24 15:09:36;;;;;;;27.27;8.68;;;;;;;;;;6009071;29;20491;-77
2022/01/24 15:12:46;;;;;;;28.63;8.88;;;;;;;;;;6008935;29;20049;-78
2022/01/24 15:15:57;;;;;;;21.65;8.75;;;;;;;;;;6009159;29;20047;-77
2022/01/24 15:25:43;;;;;;;19.70;8.93;;;;;;;;;;6009783;29;20446;-79
2022/01/24 15:28:47;;;;;;;21.38;7.43;;;;;;;;;;6010078;29;20050;-76
2022/01/24 15:31:52;;;;;;;25.10;8.87;;;;;;;;;;6008131;29;20528;-74
2022/01/24 15:34:58;;;;;;;;;;;;;;;;;;6009074;29;20088;-75
2022/01/24 15:38:04;;;;;;;42.33;14.82;;;;;;;;;;6008274;29;19924;-76
2022/01/24 15:41:10;;;;;;;22.45;9.80;;;;;;;;;;5993951;29;20054;-76
2022/01/24 15:44:34;;;;;;;31.52;12.13;;;;;;;;;;6008557;29;20057;-75
2022/01/24 15:47:44;;;;;;;29.33;10.67;;;;;;;;;;6008442;29;20538;-74
2022/01/24 15:50:47;;;;;;;18.80;9.23;;;;;;;;;;6010055;29;20118;-74
2022/01/24 15:53:52;;;;;;;26.65;10.00;;;;;;;;;;6009130;29;20050;-75
2022/01/24 16:00:20;;;;;;;24.27;9.35;;;;;;;;;;5998436;29;20544;-75
2022/01/24 16:03:22;;;;;;;39.13;10.63;;;;;;;;;;6008073;29;20158;-75
2022/01/24 16:06:26;;;;;;;28.10;10.00;;;;;;;;;;6009285;29;20069;-75
2022/01/24 16:09:30;;;;;;;35.95;10.50;;;;;;;;;;6009040;29;20077;-75
2022/01/24 16:12:34;;;;;;;26.52;10.02;;;;;;;;;;6007569;29;20600;-75
2022/01/24 16:15:38;;;;;;;28.35;10.40;;;;;;;;;;6007345;29;20061;-75
2022/01/24 16:18:42;;;;;;;30.33;10.35;;;;;;;;;;6007921;29;20057;-78
2022/01/24 16:21:58;;;;;;;27.73;10.93;;;;;;;;;;6007061;29;20074;-76
2022/01/24 16:25:33;;;;;;;25.98;10.95;;;;;;;;;;6008923;29;20520;-76
2022/01/24 16:28:37;;;;;;;27.65;11.23;;;;;;;;;;6007248;29;20062;-82
2022/01/24 16:31:40;;;;;;;34.08;11.85;;;;;;;;;;6008021;29;20497;-77
2022/01/24 16:34:43;;;;;;;32.17;11.68;;;;;;;;;;6007213;29;20053;-78
2022/01/24 16:37:46;;;;;;;28.65;11.20;;;;;;;;;;6008363;29;20080;-79
2022/01/24 16:40:56;;;;;;;31.60;11.40;;;;;;;;;;6008566;29;20574;-79
2022/01/24 16:44:04;;;;;;;26.80;10.25;;;;;;;;;;6006795;29;20081;-81
2022/01/24 16:47:10;;;;;;;27.20;10.18;;;;;;;;;;6008640;29;20452;-81
2022/01/24 16:50:13;;;;;;;23.33;9.48;;;;;;;;;;6006765;29;20378;-81
2022/01/24 16:53:18;;;;;;;20.10;8.93;;;;;;;;;;6009010;29;20105;-81
2022/01/24 16:56:26;;;;;;;19.75;8.93;;;;;;;;;;6007034;29;20391;-81
2022/01/24 16:59:31;;;;;;;22.85;8.68;;;;;;;;;;6006896;29;20046;-80
2022/01/24 17:02:34;;;;;;;20.13;9.15;;;;;;;;;;6006770;29;20058;-81
2022/01/24 17:05:39;;;;;;;24.25;9.60;;;;;;;;;;6006241;29;20066;-79
2022/01/24 17:08:42;;;;;;;22.58;9.30;;;;;;;;;;6007125;29;20528;-79
2022/01/24 17:11:48;;;;;;;19.80;8.75;;;;;;;;;;6007326;29;20079;-75
2022/01/24 17:14:54;;;;;;;19.83;8.80;;;;;;;;;;6008059;29;20135;-78
2022/01/24 17:17:59;;;;;;;24.73;9.43;;;;;;;;;;6006836;29;20194;-76
2022/01/24 17:21:03;;;;;;;21.33;9.93;;;;;;;;;;6006025;29;20478;-75
2022/01/24 17:24:08;;;;;;;23.05;10.05;;;;;;;;;;6006439;29;20053;-75
2022/01/24 17:27:13;;;;;;;20.77;9.67;;;;;;;;;;6007250;29;20049;-77
2022/01/24 17:30:16;;;;;;;23.05;10.10;;;;;;;;;;6007891;29;20057;-75
2022/01/24 17:33:28;;;;;;;23.33;10.25;;;;;;;;;;6005776;29;20054;-76
2022/01/24 17:36:32;;;;;;;22.80;10.32;;;;;;;;;;6007567;29;20454;-74
2022/01/24 17:39:38;;;;;;;21.80;10.45;;;;;;;;;;6005941;29;20050;-77
2022/01/24 17:42:43;;;;;;;20.65;10.13;;;;;;;;;;6006988;29;20056;-78
2022/01/24 17:45:46;;;;;;;24.30;11.00;;;;;;;;;;6008215;29;20050;-76
2022/01/24 17:48:49;;;;;;;23.65;10.68;;;;;;;;;;6005649;29;20461;-76
2022/01/24 17:51:52;;;;;;;26.48;12.15;;;;;;;;;;6007375;29;20046;-77
2022/01/24 17:54:55;;;;;;;25.02;10.80;;;;;;;;;;6006138;29;20088;-77
2022/01/24 17:58:00;;;;;;;26.23;10.70;;;;;;;;;;6006639;29;20054;-75
2022/01/24 18:01:03;;;;;;;27.00;9.95;;;;;;;;;;6005149;29;20253;-75
2022/01/24 18:04:07;;;;;;;23.17;10.50;;;;;;;;;;6003879;29;20054;-77
2022/01/24 18:07:10;;;;;;;24.40;11.55;;;;;;;;;;6004518;29;20117;-77
2022/01/24 18:10:16;;;;;;;20.67;10.57;;;;;;;;;;6003452;29;20072;-77
2022/01/24 18:13:20;;;;;;;25.65;10.70;;;;;;;;;;6004498;29;20402;-75
2022/01/24 18:16:24;;;;;;;27.42;11.65;;;;;;;;;;5988326;29;20485;-78
2022/01/24 18:19:27;;;;;;;22.13;11.02;;;;;;;;;;6005852;29;20405;-80
2022/01/24 18:22:31;;;;;;;21.10;11.00;;;;;;;;;;6009210;29;20061;-79
2022/01/24 18:25:34;;;;;;;22.48;11.65;;;;;;;;;;6007132;29;20497;-77
2022/01/24 18:28:38;;;;;;;21.83;9.75;;;;;;;;;;6008599;29;20534;-75
2022/01/24 18:31:44;;;;;;;26.95;10.35;;;;;;;;;;6007548;29;20041;-77
2022/01/24 18:34:51;;;;;;;24.45;10.82;;;;;;;;;;6008151;29;20063;-77
2022/01/24 18:37:54;;;;;;;22.50;10.80;;;;;;;;;;6011209;29;20493;-76
2022/01/24 18:40:58;;;;;;;25.70;11.23;;;;;;;;;;6011011;29;20147;-74
2022/01/24 18:44:04;;;;;;;26.27;11.65;;;;;;;;;;6011204;29;20386;-74
2022/01/24 18:47:10;;;;;;;26.85;11.45;;;;;;;;;;6010706;29;20398;-76
2022/01/24 18:50:20;;;;;;;23.15;11.05;;;;;;;;;;6010640;29;20158;-77
2022/01/24 18:53:23;;;;;;;24.33;10.20;;;;;;;;;;6009678;29;20075;-75
2022/01/24 18:56:26;;;;;;;24.05;11.50;;;;;;;;;;6010089;29;20053;-76
2022/01/24 18:59:32;;;;;;;27.98;11.00;;;;;;;;;;6010989;29;20093;-72
2022/01/24 19:02:35;;;;;;;26.23;11.55;;;;;;;;;;6010086;29;20402;-78
2022/01/24 19:05:45;;;;;;;28.45;11.40;;;;;;;;;;6010692;29;20053;-76
2022/01/24 19:08:48;;;;;;;29.15;12.45;;;;;;;;;;6008976;29;20060;-76
2022/01/24 19:11:52;;;;;;;29.75;12.05;;;;;;;;;;6008717;29;20080;-77
2022/01/24 19:15:00;;;;;;;24.85;12.07;;;;;;;;;;6010039;29;20132;-74
2022/01/24 19:18:16;;;;;;;28.17;12.75;;;;;;;;;;6009039;29;20053;-75
2022/01/24 19:24:40;;;;;;;29.42;12.18;;;;;;;;;;6008931;29;20054;-79
2022/01/24 19:27:45;;;;;;;27.70;11.70;;;;;;;;;;6010797;29;20064;-74
2022/01/24 19:30:52;;;;;;;28.23;12.57;;;;;;;;;;6009362;29;20054;-75
2022/01/24 19:33:55;;;;;;;31.00;13.52;;;;;;;;;;6010953;29;20054;-75
2022/01/24 19:37:01;;;;;;;31.63;13.60;;;;;;;;;;6009835;29;20065;-75
2022/01/24 19:40:06;;;;;;;26.10;11.43;;;;;;;;;;6009725;29;20050;-76
2022/01/24 19:43:09;;;;;;;28.83;12.65;;;;;;;;;;6008795;29;20114;-75
2022/01/24 19:46:14;;;;;;;27.30;12.57;;;;;;;;;;6008314;29;20078;-77
2022/01/24 19:49:18;;;;;;;26.83;12.43;;;;;;;;;;6010146;29;20076;-79
2022/01/24 19:52:21;;;;;;;26.02;12.18;;;;;;;;;;6008008;29;20531;-81
2022/01/24 19:55:32;;;;;;;30.27;13.18;;;;;;;;;;6009553;29;20049;-79
2022/01/24 19:58:39;;;;;;;28.52;13.13;;;;;;;;;;6009526;29;20050;-79
2022/01/24 20:01:47;;;;;;;30.25;13.90;;;;;;;;;;6010520;29;20057;-78
2022/01/24 20:04:58;;;;;;;28.95;13.90;;;;;;;;;;6009356;29;20565;-78
2022/01/24 20:08:05;;;;;;;28.00;13.10;;;;;;;;;;6008984;29;20052;-81
2022/01/24 20:11:08;;;;;;;31.98;13.77;;;;;;;;;;6009535;29;20050;-79
2022/01/24 20:14:12;;;;;;;27.17;12.32;;;;;;;;;;6009258;29;20054;-84
2022/01/24 20:17:17;;;;;;;27.30;12.45;;;;;;;;;;5992900;29;20081;-78
2022/01/24 20:20:21;;;;;;;26.50;12.30;;;;;;;;;;6008149;29;20128;-81
2022/01/24 20:23:31;;;;;;;26.92;12.77;;;;;;;;;;6007663;29;20054;-79
2022/01/24 20:26:37;;;;;;;25.35;12.48;;;;;;;;;;5993214;29;20058;-76
2022/01/24 20:29:40;;;;;;;27.33;11.55;;;;;;;;;;6007316;29;20432;-74
2022/01/24 20:32:45;;;;;;;24.10;11.82;;;;;;;;;;6008835;29;20117;-76
2022/01/24 20:35:48;;;;;;;29.48;12.95;;;;;;;;;;6007139;29;20050;-74
2022/01/24 20:38:51;;;;;;;27.35;12.20;;;;;;;;;;5991704;29;20057;-75